sensor_id;sensor_type;location;lat;lon;timestamp;P1;durP1;ratioP1;P2;durP2;ratioP2
24223;SDS011;12359;49.716;9.212;2023-04-03T00:01:13;0.25;;;0.25;;
24223;SDS011;12359;49.716;9.212;2023-04-03T00:03:40;0.30;;;0.30;;
24223;SDS011;12359;49.716;9.212;2023-04-03T00:06:09;0.30;;;0.30;;
24223;SDS011;12359;49.716;9.212;2023-04-03T00:08:36;0.30;;;0.30;;
24223;SDS011;12359;49.716;9.212;2023-04-03T00:11:02;0.30;;;0.30;;
24223;SDS011;12359;49.716;9.212;2023-04-03T00:13:29;0.30;;;0.30;;
24223;SDS011;12359;49.716;9.212;2023-04-03T00:15:55;0.30;;;0.30;;
24223;SDS011;12359;49.716;9.212;2023-04-03T00:18:21;0.30;;;0.30;;
24223;SDS011;12359;49.716;9.212;2023-04-03T00:20:47;0.30;;;0.30;;
24223;SDS011;12359;49.716;9.212;2023-04-03T00:23:13;0.20;;;0.20;;
24223;SDS011;12359;49.716;9.212;2023-04-03T00:25:39;0.25;;;0.25;;
24223;SDS011;12359;49.716;9.212;2023-04-03T00:28:05;0.30;;;0.30;;
24223;SDS011;12359;49.716;9.212;2023-04-03T00:30:31;0.28;;;0.28;;
24223;SDS011;12359;49.716;9.212;2023-04-03T00:32:57;0.30;;;0.30;;
24223;SDS011;12359;49.716;9.212;2023-04-03T00:35:23;0.30;;;0.30;;
24223;SDS011;12359;49.716;9.212;2023-04-03T00:37:53;0.30;;;0.30;;
24223;SDS011;12359;49.716;9.212;2023-04-03T00:40:20;0.30;;;0.30;;
24223;SDS011;12359;49.716;9.212;2023-04-03T00:42:48;0.30;;;0.30;;
24223;SDS011;12359;49.716;9.212;2023-04-03T00:45:37;0.30;;;0.30;;
24223;SDS011;12359;49.716;9.212;2023-04-03T00:48:06;0.30;;;0.30;;
24223;SDS011;12359;49.716;9.212;2023-04-03T00:50:35;0.40;;;0.40;;
24223;SDS011;12359;49.716;9.212;2023-04-03T00:53:06;0.30;;;0.30;;
24223;SDS011;12359;49.716;9.212;2023-04-03T00:55:34;0.30;;;0.30;;
24223;SDS011;12359;49.716;9.212;2023-04-03T00:58:03;0.20;;;0.20;;
24223;SDS011;12359;49.716;9.212;2023-04-03T01:00:32;0.30;;;0.30;;
24223;SDS011;12359;49.716;9.212;2023-04-03T01:02:58;0.40;;;0.40;;
24223;SDS011;12359;49.716;9.212;2023-04-03T01:05:24;0.20;;;0.20;;
24223;SDS011;12359;49.716;9.212;2023-04-03T01:07:50;0.25;;;0.25;;
24223;SDS011;12359;49.716;9.212;2023-04-03T01:10:17;0.30;;;0.30;;
24223;SDS011;12359;49.716;9.212;2023-04-03T01:12:45;0.20;;;0.20;;
24223;SDS011;12359;49.716;9.212;2023-04-03T01:17:45;0.30;;;0.30;;
24223;SDS011;12359;49.716;9.212;2023-04-03T01:25:42;0.20;;;0.20;;
24223;SDS011;12359;49.716;9.212;2023-04-03T01:28:21;0.30;;;0.30;;
24223;SDS011;12359;49.716;9.212;2023-04-03T01:33:33;0.30;;;0.30;;
24223;SDS011;12359;49.716;9.212;2023-04-03T01:36:00;0.30;;;0.30;;
24223;SDS011;12359;49.716;9.212;2023-04-03T01:38:26;0.40;;;0.40;;
24223;SDS011;12359;49.716;9.212;2023-04-03T01:40:52;0.30;;;0.30;;
24223;SDS011;12359;49.716;9.212;2023-04-03T01:43:17;0.30;;;0.30;;
24223;SDS011;12359;49.716;9.212;2023-04-03T01:45:43;0.30;;;0.30;;
24223;SDS011;12359;49.716;9.212;2023-04-03T01:48:09;0.30;;;0.30;;
24223;SDS011;12359;49.716;9.212;2023-04-03T01:50:34;0.30;;;0.30;;
24223;SDS011;12359;49.716;9.212;2023-04-03T01:53:00;0.30;;;0.30;;
24223;SDS011;12359;49.716;9.212;2023-04-03T01:55:26;0.30;;;0.30;;
24223;SDS011;12359;49.716;9.212;2023-04-03T01:57:51;0.30;;;0.30;;
24223;SDS011;12359;49.716;9.212;2023-04-03T02:00:17;0.30;;;0.30;;
24223;SDS011;12359;49.716;9.212;2023-04-03T02:02:43;0.30;;;0.30;;
24223;SDS011;12359;49.716;9.212;2023-04-03T02:05:09;0.30;;;0.30;;
24223;SDS011;12359;49.716;9.212;2023-04-03T02:07:35;0.22;;;0.22;;
24223;SDS011;12359;49.716;9.212;2023-04-03T02:10:00;0.30;;;0.30;;
24223;SDS011;12359;49.716;9.212;2023-04-03T02:12:26;0.30;;;0.30;;
24223;SDS011;12359;49.716;9.212;2023-04-03T02:14:52;0.20;;;0.20;;
24223;SDS011;12359;49.716;9.212;2023-04-03T02:17:17;0.30;;;0.30;;
24223;SDS011;12359;49.716;9.212;2023-04-03T02:19:43;0.35;;;0.35;;
24223;SDS011;12359;49.716;9.212;2023-04-03T02:22:09;0.30;;;0.30;;
24223;SDS011;12359;49.716;9.212;2023-04-03T02:24:35;0.30;;;0.30;;
24223;SDS011;12359;49.716;9.212;2023-04-03T02:27:01;0.30;;;0.30;;
24223;SDS011;12359;49.716;9.212;2023-04-03T02:29:26;0.30;;;0.30;;
24223;SDS011;12359;49.716;9.212;2023-04-03T02:31:52;0.30;;;0.30;;
24223;SDS011;12359;49.716;9.212;2023-04-03T02:34:18;0.30;;;0.30;;
24223;SDS011;12359;49.716;9.212;2023-04-03T02:36:43;0.32;;;0.32;;
24223;SDS011;12359;49.716;9.212;2023-04-03T02:39:09;0.30;;;0.30;;
24223;SDS011;12359;49.716;9.212;2023-04-03T02:41:36;0.30;;;0.30;;
24223;SDS011;12359;49.716;9.212;2023-04-03T02:44:02;0.30;;;0.30;;
24223;SDS011;12359;49.716;9.212;2023-04-03T02:46:29;0.20;;;0.20;;
24223;SDS011;12359;49.716;9.212;2023-04-03T02:48:55;0.30;;;0.30;;
24223;SDS011;12359;49.716;9.212;2023-04-03T02:51:20;0.30;;;0.30;;
24223;SDS011;12359;49.716;9.212;2023-04-03T02:53:46;0.30;;;0.30;;
24223;SDS011;12359;49.716;9.212;2023-04-03T02:56:12;0.40;;;0.40;;
24223;SDS011;12359;49.716;9.212;2023-04-03T02:58:37;0.30;;;0.30;;
24223;SDS011;12359;49.716;9.212;2023-04-03T03:01:03;0.30;;;0.30;;
24223;SDS011;12359;49.716;9.212;2023-04-03T03:03:29;0.30;;;0.30;;
24223;SDS011;12359;49.716;9.212;2023-04-03T03:06:04;0.30;;;0.30;;
24223;SDS011;12359;49.716;9.212;2023-04-03T03:08:32;0.30;;;0.30;;
24223;SDS011;12359;49.716;9.212;2023-04-03T03:10:58;0.30;;;0.30;;
24223;SDS011;12359;49.716;9.212;2023-04-03T03:13:24;0.30;;;0.30;;
24223;SDS011;12359;49.716;9.212;2023-04-03T03:15:50;0.40;;;0.40;;
24223;SDS011;12359;49.716;9.212;2023-04-03T03:18:16;0.30;;;0.30;;
24223;SDS011;12359;49.716;9.212;2023-04-03T03:20:42;0.40;;;0.40;;
24223;SDS011;12359;49.716;9.212;2023-04-03T03:23:07;0.30;;;0.30;;
24223;SDS011;12359;49.716;9.212;2023-04-03T03:25:33;0.20;;;0.20;;
24223;SDS011;12359;49.716;9.212;2023-04-03T03:28:03;0.40;;;0.40;;
24223;SDS011;12359;49.716;9.212;2023-04-03T03:30:29;0.30;;;0.30;;
24223;SDS011;12359;49.716;9.212;2023-04-03T03:32:55;0.20;;;0.20;;
24223;SDS011;12359;49.716;9.212;2023-04-03T03:35:21;0.30;;;0.30;;
24223;SDS011;12359;49.716;9.212;2023-04-03T03:37:47;0.30;;;0.30;;
24223;SDS011;12359;49.716;9.212;2023-04-03T03:40:13;0.30;;;0.30;;
24223;SDS011;12359;49.716;9.212;2023-04-03T03:42:39;0.32;;;0.32;;
24223;SDS011;12359;49.716;9.212;2023-04-03T03:45:05;0.30;;;0.30;;
24223;SDS011;12359;49.716;9.212;2023-04-03T03:47:31;0.35;;;0.35;;
24223;SDS011;12359;49.716;9.212;2023-04-03T03:49:57;0.30;;;0.30;;
24223;SDS011;12359;49.716;9.212;2023-04-03T03:52:22;0.30;;;0.30;;
24223;SDS011;12359;49.716;9.212;2023-04-03T03:54:48;0.30;;;0.30;;
24223;SDS011;12359;49.716;9.212;2023-04-03T03:57:14;0.30;;;0.30;;
24223;SDS011;12359;49.716;9.212;2023-04-03T03:59:40;0.30;;;0.30;;
24223;SDS011;12359;49.716;9.212;2023-04-03T04:02:06;0.40;;;0.40;;
24223;SDS011;12359;49.716;9.212;2023-04-03T04:04:33;0.40;;;0.40;;
24223;SDS011;12359;49.716;9.212;2023-04-03T04:06:58;0.30;;;0.30;;
24223;SDS011;12359;49.716;9.212;2023-04-03T04:09:25;0.30;;;0.30;;
24223;SDS011;12359;49.716;9.212;2023-04-03T04:11:51;0.30;;;0.30;;
24223;SDS011;12359;49.716;9.212;2023-04-03T04:14:17;0.35;;;0.35;;
24223;SDS011;12359;49.716;9.212;2023-04-03T04:16:43;0.20;;;0.20;;
24223;SDS011;12359;49.716;9.212;2023-04-03T04:19:08;0.30;;;0.30;;
24223;SDS011;12359;49.716;9.212;2023-04-03T04:21:34;0.30;;;0.30;;
24223;SDS011;12359;49.716;9.212;2023-04-03T04:24:00;0.30;;;0.30;;
24223;SDS011;12359;49.716;9.212;2023-04-03T04:26:26;0.30;;;0.30;;
24223;SDS011;12359;49.716;9.212;2023-04-03T04:28:52;0.30;;;0.30;;
24223;SDS011;12359;49.716;9.212;2023-04-03T04:31:17;0.30;;;0.30;;
24223;SDS011;12359;49.716;9.212;2023-04-03T04:33:43;0.30;;;0.30;;
24223;SDS011;12359;49.716;9.212;2023-04-03T04:36:08;0.30;;;0.30;;
24223;SDS011;12359;49.716;9.212;2023-04-03T04:38:34;0.20;;;0.20;;
24223;SDS011;12359;49.716;9.212;2023-04-03T04:41:00;0.30;;;0.30;;
24223;SDS011;12359;49.716;9.212;2023-04-03T04:43:26;0.30;;;0.30;;
24223;SDS011;12359;49.716;9.212;2023-04-03T04:46:05;0.30;;;0.30;;
24223;SDS011;12359;49.716;9.212;2023-04-03T04:48:32;0.30;;;0.30;;
24223;SDS011;12359;49.716;9.212;2023-04-03T04:50:59;0.30;;;0.30;;
24223;SDS011;12359;49.716;9.212;2023-04-03T04:53:25;0.28;;;0.28;;
24223;SDS011;12359;49.716;9.212;2023-04-03T04:55:51;0.20;;;0.20;;
24223;SDS011;12359;49.716;9.212;2023-04-03T04:58:17;0.30;;;0.30;;
24223;SDS011;12359;49.716;9.212;2023-04-03T05:00:43;0.30;;;0.30;;
24223;SDS011;12359;49.716;9.212;2023-04-03T05:03:09;0.30;;;0.30;;
24223;SDS011;12359;49.716;9.212;2023-04-03T05:05:35;0.30;;;0.30;;
24223;SDS011;12359;49.716;9.212;2023-04-03T05:08:01;0.20;;;0.20;;
24223;SDS011;12359;49.716;9.212;2023-04-03T05:10:27;0.30;;;0.30;;
24223;SDS011;12359;49.716;9.212;2023-04-03T05:12:53;0.30;;;0.30;;
24223;SDS011;12359;49.716;9.212;2023-04-03T05:15:19;0.20;;;0.20;;
24223;SDS011;12359;49.716;9.212;2023-04-03T05:17:45;0.20;;;0.20;;
24223;SDS011;12359;49.716;9.212;2023-04-03T05:20:11;0.32;;;0.32;;
24223;SDS011;12359;49.716;9.212;2023-04-03T05:22:37;0.30;;;0.30;;
24223;SDS011;12359;49.716;9.212;2023-04-03T05:25:03;0.30;;;0.30;;
24223;SDS011;12359;49.716;9.212;2023-04-03T05:27:30;0.30;;;0.30;;
24223;SDS011;12359;49.716;9.212;2023-04-03T05:29:55;0.40;;;0.40;;
24223;SDS011;12359;49.716;9.212;2023-04-03T05:32:22;0.30;;;0.30;;
24223;SDS011;12359;49.716;9.212;2023-04-03T05:34:48;0.30;;;0.30;;
24223;SDS011;12359;49.716;9.212;2023-04-03T05:37:14;0.20;;;0.20;;
24223;SDS011;12359;49.716;9.212;2023-04-03T05:39:39;0.30;;;0.30;;
24223;SDS011;12359;49.716;9.212;2023-04-03T05:42:06;0.30;;;0.30;;
24223;SDS011;12359;49.716;9.212;2023-04-03T05:44:32;0.30;;;0.30;;
24223;SDS011;12359;49.716;9.212;2023-04-03T05:46:58;0.30;;;0.30;;
24223;SDS011;12359;49.716;9.212;2023-04-03T05:49:24;0.20;;;0.20;;
24223;SDS011;12359;49.716;9.212;2023-04-03T05:51:50;0.30;;;0.30;;
24223;SDS011;12359;49.716;9.212;2023-04-03T05:54:26;0.30;;;0.30;;
24223;SDS011;12359;49.716;9.212;2023-04-03T05:56:54;0.20;;;0.20;;
24223;SDS011;12359;49.716;9.212;2023-04-03T05:59:20;0.30;;;0.30;;
24223;SDS011;12359;49.716;9.212;2023-04-03T06:01:47;0.30;;;0.30;;
24223;SDS011;12359;49.716;9.212;2023-04-03T06:04:13;0.20;;;0.20;;
24223;SDS011;12359;49.716;9.212;2023-04-03T06:06:46;0.20;;;0.20;;
24223;SDS011;12359;49.716;9.212;2023-04-03T06:09:17;0.20;;;0.20;;
24223;SDS011;12359;49.716;9.212;2023-04-03T06:11:49;0.20;;;0.20;;
24223;SDS011;12359;49.716;9.212;2023-04-03T06:14:15;0.10;;;0.10;;
24223;SDS011;12359;49.716;9.212;2023-04-03T06:16:41;0.10;;;0.10;;
24223;SDS011;12359;49.716;9.212;2023-04-03T06:19:10;0.10;;;0.10;;
24223;SDS011;12359;49.716;9.212;2023-04-03T06:21:36;0.10;;;0.10;;
24223;SDS011;12359;49.716;9.212;2023-04-03T06:24:03;0.10;;;0.10;;
24223;SDS011;12359;49.716;9.212;2023-04-03T06:26:30;0.10;;;0.10;;
24223;SDS011;12359;49.716;9.212;2023-04-03T06:28:56;0.10;;;0.10;;
24223;SDS011;12359;49.716;9.212;2023-04-03T06:31:22;0.10;;;0.10;;
24223;SDS011;12359;49.716;9.212;2023-04-03T06:33:48;0.10;;;0.10;;
24223;SDS011;12359;49.716;9.212;2023-04-03T06:36:14;0.10;;;0.10;;
24223;SDS011;12359;49.716;9.212;2023-04-03T06:38:44;0.10;;;0.10;;
24223;SDS011;12359;49.716;9.212;2023-04-03T06:41:10;0.10;;;0.10;;
24223;SDS011;12359;49.716;9.212;2023-04-03T06:43:36;0.10;;;0.10;;
24223;SDS011;12359;49.716;9.212;2023-04-03T06:46:02;0.10;;;0.10;;
24223;SDS011;12359;49.716;9.212;2023-04-03T06:48:28;0.20;;;0.20;;
24223;SDS011;12359;49.716;9.212;2023-04-03T06:50:54;0.10;;;0.10;;
24223;SDS011;12359;49.716;9.212;2023-04-03T06:53:20;0.10;;;0.10;;
24223;SDS011;12359;49.716;9.212;2023-04-03T06:55:46;0.10;;;0.10;;
24223;SDS011;12359;49.716;9.212;2023-04-03T06:58:12;0.10;;;0.10;;
24223;SDS011;12359;49.716;9.212;2023-04-03T07:00:40;0.10;;;0.10;;
24223;SDS011;12359;49.716;9.212;2023-04-03T07:03:06;0.10;;;0.10;;
24223;SDS011;12359;49.716;9.212;2023-04-03T07:05:32;0.10;;;0.10;;
24223;SDS011;12359;49.716;9.212;2023-04-03T07:07:57;0.10;;;0.10;;
24223;SDS011;12359;49.716;9.212;2023-04-03T07:10:23;0.10;;;0.10;;
24223;SDS011;12359;49.716;9.212;2023-04-03T07:12:49;0.00;;;0.00;;
24223;SDS011;12359;49.716;9.212;2023-04-03T07:15:14;0.00;;;0.00;;
24223;SDS011;12359;49.716;9.212;2023-04-03T07:17:40;0.00;;;0.00;;
24223;SDS011;12359;49.716;9.212;2023-04-03T07:20:06;0.00;;;0.00;;
24223;SDS011;12359;49.716;9.212;2023-04-03T07:22:33;0.00;;;0.00;;
24223;SDS011;12359;49.716;9.212;2023-04-03T07:24:58;0.00;;;0.00;;
24223;SDS011;12359;49.716;9.212;2023-04-03T07:27:25;0.00;;;0.00;;
24223;SDS011;12359;49.716;9.212;2023-04-03T07:29:50;0.08;;;0.08;;
24223;SDS011;12359;49.716;9.212;2023-04-03T07:32:16;0.10;;;0.10;;
24223;SDS011;12359;49.716;9.212;2023-04-03T07:34:42;0.00;;;0.00;;
24223;SDS011;12359;49.716;9.212;2023-04-03T07:37:08;0.10;;;0.10;;
24223;SDS011;12359;49.716;9.212;2023-04-03T07:39:34;0.00;;;0.00;;
24223;SDS011;12359;49.716;9.212;2023-04-03T07:42:00;0.00;;;0.00;;
24223;SDS011;12359;49.716;9.212;2023-04-03T07:44:27;0.00;;;0.00;;
24223;SDS011;12359;49.716;9.212;2023-04-03T07:46:53;0.00;;;0.00;;
24223;SDS011;12359;49.716;9.212;2023-04-03T07:49:21;0.00;;;0.00;;
24223;SDS011;12359;49.716;9.212;2023-04-03T07:51:49;0.03;;;0.03;;
24223;SDS011;12359;49.716;9.212;2023-04-03T07:54:14;0.10;;;0.10;;
24223;SDS011;12359;49.716;9.212;2023-04-03T07:56:40;0.00;;;0.00;;
24223;SDS011;12359;49.716;9.212;2023-04-03T07:59:07;0.10;;;0.10;;
24223;SDS011;12359;49.716;9.212;2023-04-03T08:01:34;0.10;;;0.10;;
24223;SDS011;12359;49.716;9.212;2023-04-03T08:04:00;0.10;;;0.10;;
24223;SDS011;12359;49.716;9.212;2023-04-03T08:06:26;0.10;;;0.10;;
24223;SDS011;12359;49.716;9.212;2023-04-03T08:08:54;0.10;;;0.10;;
24223;SDS011;12359;49.716;9.212;2023-04-03T08:11:19;0.10;;;0.10;;
24223;SDS011;12359;49.716;9.212;2023-04-03T08:13:45;0.10;;;0.10;;
24223;SDS011;12359;49.716;9.212;2023-04-03T08:16:12;0.10;;;0.10;;
24223;SDS011;12359;49.716;9.212;2023-04-03T08:18:42;0.10;;;0.10;;
24223;SDS011;12359;49.716;9.212;2023-04-03T08:21:09;0.10;;;0.10;;
24223;SDS011;12359;49.716;9.212;2023-04-03T08:23:36;0.10;;;0.10;;
24223;SDS011;12359;49.716;9.212;2023-04-03T08:26:21;0.10;;;0.10;;
24223;SDS011;12359;49.716;9.212;2023-04-03T08:28:47;0.10;;;0.10;;
24223;SDS011;12359;49.716;9.212;2023-04-03T08:31:15;0.10;;;0.10;;
24223;SDS011;12359;49.716;9.212;2023-04-03T08:33:42;0.10;;;0.10;;
24223;SDS011;12359;49.716;9.212;2023-04-03T08:36:15;0.10;;;0.10;;
24223;SDS011;12359;49.716;9.212;2023-04-03T08:38:43;0.10;;;0.10;;
24223;SDS011;12359;49.716;9.212;2023-04-03T08:49:30;0.10;;;0.10;;
24223;SDS011;12359;49.716;9.212;2023-04-03T08:52:01;0.10;;;0.10;;
24223;SDS011;12359;49.716;9.212;2023-04-03T08:54:33;0.10;;;0.10;;
24223;SDS011;12359;49.716;9.212;2023-04-03T08:57:25;0.10;;;0.10;;
24223;SDS011;12359;49.716;9.212;2023-04-03T09:00:00;0.10;;;0.10;;
24223;SDS011;12359;49.716;9.212;2023-04-03T09:02:41;0.10;;;0.10;;
24223;SDS011;12359;49.716;9.212;2023-04-03T09:05:19;0.10;;;0.10;;
24223;SDS011;12359;49.716;9.212;2023-04-03T09:08:04;0.20;;;0.20;;
24223;SDS011;12359;49.716;9.212;2023-04-03T09:10:35;0.17;;;0.17;;
24223;SDS011;12359;49.716;9.212;2023-04-03T09:13:18;0.10;;;0.10;;
24223;SDS011;12359;49.716;9.212;2023-04-03T09:15:53;0.10;;;0.10;;
24223;SDS011;12359;49.716;9.212;2023-04-03T09:18:21;0.20;;;0.20;;
24223;SDS011;12359;49.716;9.212;2023-04-03T09:20:57;0.13;;;0.13;;
24223;SDS011;12359;49.716;9.212;2023-04-03T09:23:50;0.20;;;0.20;;
24223;SDS011;12359;49.716;9.212;2023-04-03T09:28:51;0.20;;;0.20;;
24223;SDS011;12359;49.716;9.212;2023-04-03T09:31:23;0.20;;;0.20;;
24223;SDS011;12359;49.716;9.212;2023-04-03T09:33:58;0.20;;;0.20;;
24223;SDS011;12359;49.716;9.212;2023-04-03T09:36:41;0.20;;;0.20;;
24223;SDS011;12359;49.716;9.212;2023-04-03T09:39:15;0.20;;;0.20;;
24223;SDS011;12359;49.716;9.212;2023-04-03T09:41:54;0.20;;;0.20;;
24223;SDS011;12359;49.716;9.212;2023-04-03T09:44:21;0.20;;;0.20;;
24223;SDS011;12359;49.716;9.212;2023-04-03T09:46:49;0.10;;;0.10;;
24223;SDS011;12359;49.716;9.212;2023-04-03T09:49:15;0.20;;;0.20;;
24223;SDS011;12359;49.716;9.212;2023-04-03T09:51:42;0.20;;;0.20;;
24223;SDS011;12359;49.716;9.212;2023-04-03T09:57:09;0.20;;;0.20;;
24223;SDS011;12359;49.716;9.212;2023-04-03T09:59:40;0.20;;;0.20;;
24223;SDS011;12359;49.716;9.212;2023-04-03T10:07:50;0.20;;;0.20;;
24223;SDS011;12359;49.716;9.212;2023-04-03T10:10:20;0.20;;;0.20;;
24223;SDS011;12359;49.716;9.212;2023-04-03T10:12:49;0.20;;;0.20;;
24223;SDS011;12359;49.716;9.212;2023-04-03T10:15:30;0.20;;;0.20;;
24223;SDS011;12359;49.716;9.212;2023-04-03T10:18:26;0.20;;;0.20;;
24223;SDS011;12359;49.716;9.212;2023-04-03T10:20:54;0.20;;;0.20;;
24223;SDS011;12359;49.716;9.212;2023-04-03T10:23:42;0.20;;;0.20;;
24223;SDS011;12359;49.716;9.212;2023-04-03T10:32:07;0.20;;;0.20;;
24223;SDS011;12359;49.716;9.212;2023-04-03T10:34:46;0.20;;;0.20;;
24223;SDS011;12359;49.716;9.212;2023-04-03T10:42:27;0.25;;;0.25;;
24223;SDS011;12359;49.716;9.212;2023-04-03T10:45:20;0.20;;;0.20;;
24223;SDS011;12359;49.716;9.212;2023-04-03T10:58:52;0.20;;;0.20;;
24223;SDS011;12359;49.716;9.212;2023-04-03T11:01:44;0.20;;;0.20;;
24223;SDS011;12359;49.716;9.212;2023-04-03T11:04:13;0.20;;;0.20;;
24223;SDS011;12359;49.716;9.212;2023-04-03T11:06:43;0.20;;;0.20;;
24223;SDS011;12359;49.716;9.212;2023-04-03T11:09:26;0.20;;;0.20;;
24223;SDS011;12359;49.716;9.212;2023-04-03T11:11:58;0.20;;;0.20;;
24223;SDS011;12359;49.716;9.212;2023-04-03T11:14:32;0.22;;;0.22;;
24223;SDS011;12359;49.716;9.212;2023-04-03T11:25:40;0.20;;;0.20;;
24223;SDS011;12359;49.716;9.212;2023-04-03T11:28:14;0.20;;;0.20;;
24223;SDS011;12359;49.716;9.212;2023-04-03T11:38:47;0.20;;;0.20;;
24223;SDS011;12359;49.716;9.212;2023-04-03T11:41:17;0.20;;;0.20;;
24223;SDS011;12359;49.716;9.212;2023-04-03T11:44:01;0.20;;;0.20;;
24223;SDS011;12359;49.716;9.212;2023-04-03T12:16:27;0.20;;;0.20;;
24223;SDS011;12359;49.716;9.212;2023-04-03T12:29:17;0.20;;;0.20;;
24223;SDS011;12359;49.716;9.212;2023-04-03T12:35:21;0.20;;;0.20;;
24223;SDS011;12359;49.716;9.212;2023-04-03T12:51:19;0.20;;;0.20;;
24223;SDS011;12359;49.716;9.212;2023-04-03T12:54:13;0.20;;;0.20;;
24223;SDS011;12359;49.716;9.212;2023-04-03T12:59:42;0.22;;;0.22;;
24223;SDS011;12359;49.716;9.212;2023-04-03T13:04:49;0.20;;;0.20;;
24223;SDS011;12359;49.716;9.212;2023-04-03T13:07:35;0.20;;;0.20;;
24223;SDS011;12359;49.716;9.212;2023-04-03T13:12:35;0.20;;;0.20;;
24223;SDS011;12359;49.716;9.212;2023-04-03T13:15:20;0.20;;;0.20;;
24223;SDS011;12359;49.716;9.212;2023-04-03T13:17:47;0.20;;;0.20;;
24223;SDS011;12359;49.716;9.212;2023-04-03T13:20:30;0.20;;;0.20;;
24223;SDS011;12359;49.716;9.212;2023-04-03T13:23:02;0.20;;;0.20;;
24223;SDS011;12359;49.716;9.212;2023-04-03T13:25:35;0.20;;;0.20;;
24223;SDS011;12359;49.716;9.212;2023-04-03T13:28:06;0.20;;;0.20;;
24223;SDS011;12359;49.716;9.212;2023-04-03T13:30:34;0.10;;;0.10;;
24223;SDS011;12359;49.716;9.212;2023-04-03T13:33:05;0.20;;;0.20;;
24223;SDS011;12359;49.716;9.212;2023-04-03T13:35:43;0.20;;;0.20;;
24223;SDS011;12359;49.716;9.212;2023-04-03T13:40:51;0.20;;;0.20;;
24223;SDS011;12359;49.716;9.212;2023-04-03T13:43:30;0.20;;;0.20;;
24223;SDS011;12359;49.716;9.212;2023-04-03T13:46:05;0.20;;;0.20;;
24223;SDS011;12359;49.716;9.212;2023-04-03T13:48:45;0.20;;;0.20;;
24223;SDS011;12359;49.716;9.212;2023-04-03T13:53:44;0.20;;;0.20;;
24223;SDS011;12359;49.716;9.212;2023-04-03T14:01:23;0.20;;;0.20;;
24223;SDS011;12359;49.716;9.212;2023-04-03T14:03:57;0.20;;;0.20;;
24223;SDS011;12359;49.716;9.212;2023-04-03T14:06:25;0.20;;;0.20;;
24223;SDS011;12359;49.716;9.212;2023-04-03T14:08:51;0.20;;;0.20;;
24223;SDS011;12359;49.716;9.212;2023-04-03T14:11:18;0.20;;;0.20;;
24223;SDS011;12359;49.716;9.212;2023-04-03T14:13:52;0.20;;;0.20;;
24223;SDS011;12359;49.716;9.212;2023-04-03T14:16:20;0.20;;;0.20;;
24223;SDS011;12359;49.716;9.212;2023-04-03T14:18:48;0.20;;;0.20;;
24223;SDS011;12359;49.716;9.212;2023-04-03T14:21:16;0.20;;;0.20;;
24223;SDS011;12359;49.716;9.212;2023-04-03T14:23:43;0.20;;;0.20;;
24223;SDS011;12359;49.716;9.212;2023-04-03T14:26:14;0.20;;;0.20;;
24223;SDS011;12359;49.716;9.212;2023-04-03T14:28:43;0.20;;;0.20;;
24223;SDS011;12359;49.716;9.212;2023-04-03T14:31:13;0.20;;;0.20;;
24223;SDS011;12359;49.716;9.212;2023-04-03T14:33:40;0.30;;;0.30;;
24223;SDS011;12359;49.716;9.212;2023-04-03T14:36:17;0.20;;;0.20;;
24223;SDS011;12359;49.716;9.212;2023-04-03T14:38:46;0.20;;;0.20;;
24223;SDS011;12359;49.716;9.212;2023-04-03T14:41:13;0.20;;;0.20;;
24223;SDS011;12359;49.716;9.212;2023-04-03T14:43:39;0.20;;;0.20;;
24223;SDS011;12359;49.716;9.212;2023-04-03T14:46:09;0.20;;;0.20;;
24223;SDS011;12359;49.716;9.212;2023-04-03T14:48:38;0.20;;;0.20;;
24223;SDS011;12359;49.716;9.212;2023-04-03T14:51:04;0.20;;;0.20;;
24223;SDS011;12359;49.716;9.212;2023-04-03T14:53:30;0.20;;;0.20;;
24223;SDS011;12359;49.716;9.212;2023-04-03T14:55:57;0.20;;;0.20;;
24223;SDS011;12359;49.716;9.212;2023-04-03T14:58:23;0.20;;;0.20;;
24223;SDS011;12359;49.716;9.212;2023-04-03T15:00:48;0.20;;;0.20;;
24223;SDS011;12359;49.716;9.212;2023-04-03T15:03:18;0.20;;;0.20;;
24223;SDS011;12359;49.716;9.212;2023-04-03T15:05:47;0.22;;;0.22;;
24223;SDS011;12359;49.716;9.212;2023-04-03T15:08:18;0.20;;;0.20;;
24223;SDS011;12359;49.716;9.212;2023-04-03T15:10:46;0.20;;;0.20;;
24223;SDS011;12359;49.716;9.212;2023-04-03T15:13:12;0.20;;;0.20;;
24223;SDS011;12359;49.716;9.212;2023-04-03T15:15:38;0.20;;;0.20;;
24223;SDS011;12359;49.716;9.212;2023-04-03T15:18:04;0.20;;;0.20;;
24223;SDS011;12359;49.716;9.212;2023-04-03T15:20:30;0.20;;;0.20;;
24223;SDS011;12359;49.716;9.212;2023-04-03T15:22:58;0.20;;;0.20;;
24223;SDS011;12359;49.716;9.212;2023-04-03T15:25:27;0.20;;;0.20;;
24223;SDS011;12359;49.716;9.212;2023-04-03T15:27:53;0.20;;;0.20;;
24223;SDS011;12359;49.716;9.212;2023-04-03T15:30:20;0.30;;;0.30;;
24223;SDS011;12359;49.716;9.212;2023-04-03T15:32:46;0.30;;;0.30;;
24223;SDS011;12359;49.716;9.212;2023-04-03T15:35:12;0.20;;;0.20;;
24223;SDS011;12359;49.716;9.212;2023-04-03T15:37:38;0.20;;;0.20;;
24223;SDS011;12359;49.716;9.212;2023-04-03T15:40:05;0.20;;;0.20;;
24223;SDS011;12359;49.716;9.212;2023-04-03T15:42:31;0.30;;;0.30;;
24223;SDS011;12359;49.716;9.212;2023-04-03T15:44:57;0.25;;;0.25;;
24223;SDS011;12359;49.716;9.212;2023-04-03T15:47:24;0.30;;;0.30;;
24223;SDS011;12359;49.716;9.212;2023-04-03T15:49:50;0.20;;;0.20;;
24223;SDS011;12359;49.716;9.212;2023-04-03T15:52:16;0.20;;;0.20;;
24223;SDS011;12359;49.716;9.212;2023-04-03T15:54:41;0.20;;;0.20;;
24223;SDS011;12359;49.716;9.212;2023-04-03T15:57:07;0.20;;;0.20;;
24223;SDS011;12359;49.716;9.212;2023-04-03T15:59:33;0.20;;;0.20;;
24223;SDS011;12359;49.716;9.212;2023-04-03T16:01:59;0.20;;;0.20;;
24223;SDS011;12359;49.716;9.212;2023-04-03T16:04:26;0.30;;;0.30;;
24223;SDS011;12359;49.716;9.212;2023-04-03T16:06:52;0.20;;;0.20;;
24223;SDS011;12359;49.716;9.212;2023-04-03T16:09:18;0.20;;;0.20;;
24223;SDS011;12359;49.716;9.212;2023-04-03T16:11:44;0.30;;;0.30;;
24223;SDS011;12359;49.716;9.212;2023-04-03T16:14:10;0.20;;;0.20;;
24223;SDS011;12359;49.716;9.212;2023-04-03T16:16:36;0.20;;;0.20;;
24223;SDS011;12359;49.716;9.212;2023-04-03T16:19:03;0.20;;;0.20;;
24223;SDS011;12359;49.716;9.212;2023-04-03T16:21:30;0.28;;;0.28;;
24223;SDS011;12359;49.716;9.212;2023-04-03T16:23:57;0.30;;;0.30;;
24223;SDS011;12359;49.716;9.212;2023-04-03T16:26:24;0.30;;;0.30;;
24223;SDS011;12359;49.716;9.212;2023-04-03T16:28:50;0.25;;;0.25;;
24223;SDS011;12359;49.716;9.212;2023-04-03T16:31:16;0.25;;;0.25;;
24223;SDS011;12359;49.716;9.212;2023-04-03T16:33:42;0.20;;;0.20;;
24223;SDS011;12359;49.716;9.212;2023-04-03T16:36:07;0.20;;;0.20;;
24223;SDS011;12359;49.716;9.212;2023-04-03T16:38:33;0.20;;;0.20;;
24223;SDS011;12359;49.716;9.212;2023-04-03T16:41:00;0.30;;;0.30;;
24223;SDS011;12359;49.716;9.212;2023-04-03T16:43:29;0.20;;;0.20;;
24223;SDS011;12359;49.716;9.212;2023-04-03T16:45:55;0.20;;;0.20;;
24223;SDS011;12359;49.716;9.212;2023-04-03T16:48:21;0.20;;;0.20;;
24223;SDS011;12359;49.716;9.212;2023-04-03T16:50:47;0.30;;;0.30;;
24223;SDS011;12359;49.716;9.212;2023-04-03T16:53:14;0.25;;;0.25;;
24223;SDS011;12359;49.716;9.212;2023-04-03T16:55:40;0.20;;;0.20;;
24223;SDS011;12359;49.716;9.212;2023-04-03T16:58:05;0.20;;;0.20;;
24223;SDS011;12359;49.716;9.212;2023-04-03T17:00:32;0.22;;;0.22;;
24223;SDS011;12359;49.716;9.212;2023-04-03T17:02:58;0.28;;;0.28;;
24223;SDS011;12359;49.716;9.212;2023-04-03T17:05:24;0.22;;;0.22;;
24223;SDS011;12359;49.716;9.212;2023-04-03T17:07:50;0.30;;;0.30;;
24223;SDS011;12359;49.716;9.212;2023-04-03T17:10:16;0.30;;;0.30;;
24223;SDS011;12359;49.716;9.212;2023-04-03T17:12:42;0.30;;;0.30;;
24223;SDS011;12359;49.716;9.212;2023-04-03T17:15:08;0.28;;;0.28;;
24223;SDS011;12359;49.716;9.212;2023-04-03T17:17:34;0.30;;;0.30;;
24223;SDS011;12359;49.716;9.212;2023-04-03T17:20:00;0.20;;;0.20;;